createdAt,value
2023-01-06T18:15:02.680Z,6.53
2023-01-06T18:17:35.709Z,6.75
2023-01-06T18:20:08.113Z,5.55
2023-01-06T18:22:40.922Z,4.28
2023-01-06T18:25:23.798Z,6.67
2023-01-06T18:27:55.944Z,8.05
2023-01-06T18:30:28.541Z,8.45
2023-01-06T18:33:01.768Z,5.47
2023-01-06T18:35:34.821Z,6.57
2023-01-06T18:38:07.418Z,7.28
2023-01-06T18:40:39.746Z,7.40
2023-01-06T18:43:24.356Z,7.80
2023-01-06T18:46:02.033Z,7.93
2023-01-06T18:48:34.986Z,12.32
2023-01-06T18:51:18.534Z,14.13
2023-01-06T18:53:52.550Z,20.27
2023-01-06T18:56:27.198Z,13.48
2023-01-06T18:58:59.955Z,16.60
2023-01-06T19:01:45.919Z,14.82
2023-01-06T19:04:33.168Z,13.00
2023-01-06T19:07:27.729Z,11.15
2023-01-06T19:09:59.766Z,10.93
2023-01-06T19:12:33.949Z,15.18
2023-01-06T19:15:27.173Z,16.45
2023-01-06T19:18:01.106Z,14.27
2023-01-06T19:20:37.474Z,13.73
2023-01-06T19:23:22.843Z,15.43
2023-01-06T19:26:04.332Z,13.52
2023-01-06T19:28:36.750Z,12.45
2023-01-06T19:31:21.481Z,10.85
2023-01-06T19:33:57.515Z,11.00
2023-01-06T19:36:44.431Z,10.93
2023-01-06T19:39:33.165Z,9.68
2023-01-06T19:42:08.562Z,9.88
2023-01-06T19:44:42.303Z,8.02
2023-01-06T19:47:39.114Z,7.32
2023-01-06T19:50:23.347Z,7.43
2023-01-06T19:52:58.727Z,8.68
2023-01-06T19:55:32.694Z,6.63
2023-01-06T19:58:15.562Z,6.60
2023-01-06T20:00:50.240Z,7.30
2023-01-06T20:03:37.403Z,5.78
2023-01-06T20:06:10.065Z,7.18
2023-01-06T20:08:42.614Z,5.43
2023-01-06T20:11:14.822Z,7.37
2023-01-06T20:13:47.323Z,7.05
2023-01-06T20:16:19.458Z,6.80
2023-01-06T20:18:52.129Z,6.97
2023-01-06T20:21:24.321Z,6.65
2023-01-06T20:23:58.524Z,7.05
2023-01-06T20:26:30.897Z,6.93
2023-01-06T20:29:04.549Z,7.88
2023-01-06T20:34:08.638Z,6.88
2023-01-06T20:36:41.104Z,7.60
2023-01-06T20:39:15.253Z,5.78
2023-01-06T20:41:47.263Z,6.88
2023-01-06T20:44:19.331Z,9.20
2023-01-06T20:46:51.597Z,5.90
2023-01-06T20:49:24.331Z,7.15
2023-01-06T20:51:56.426Z,5.87
2023-01-06T20:54:28.598Z,6.10
2023-01-06T20:57:01.589Z,7.45
2023-01-06T20:59:33.700Z,9.70
2023-01-06T21:02:07.089Z,8.80
2023-01-06T21:04:39.653Z,8.07
2023-01-06T21:07:11.908Z,7.30
2023-01-06T21:09:44.109Z,6.78
2023-01-06T21:12:16.323Z,7.82
2023-01-06T21:14:48.369Z,7.97
2023-01-06T21:17:20.577Z,7.95
2023-01-06T21:19:52.657Z,8.25
2023-01-06T21:22:24.679Z,7.53
2023-01-06T21:24:56.753Z,8.02
2023-01-06T21:27:28.909Z,7.07
2023-01-06T21:30:00.911Z,7.28
2023-01-06T21:32:32.993Z,7.28
